sensor_id;sensor_type;location;lat;lon;timestamp;pressure;altitude;pressure_sealevel;temperature;humidity
72061;BME280;59925;52.136;5.420;2023-02-11T00:00:15;103577.09;;;5.87;88.19
72061;BME280;59925;52.136;5.420;2023-02-11T00:02:42;103584.22;;;5.86;88.25
72061;BME280;59925;52.136;5.420;2023-02-11T00:05:12;103575.25;;;5.87;88.24
72061;BME280;59925;52.136;5.420;2023-02-11T00:07:39;103573.44;;;5.88;88.24
72061;BME280;59925;52.136;5.420;2023-02-11T00:10:05;103568.25;;;5.86;88.45
72061;BME280;59925;52.136;5.420;2023-02-11T00:12:36;103558.47;;;5.87;88.70
72061;BME280;59925;52.136;5.420;2023-02-11T00:15:04;103570.91;;;5.86;88.38
72061;BME280;59925;52.136;5.420;2023-02-11T00:17:31;103569.94;;;5.87;88.34
72061;BME280;59925;52.136;5.420;2023-02-11T00:19:58;103563.78;;;5.87;88.68
72061;BME280;59925;52.136;5.420;2023-02-11T00:22:25;103570.09;;;5.86;88.49
72061;BME280;59925;52.136;5.420;2023-02-11T00:24:52;103560.47;;;5.85;88.52
72061;BME280;59925;52.136;5.420;2023-02-11T00:27:18;103561.28;;;5.85;88.51
72061;BME280;59925;52.136;5.420;2023-02-11T00:29:45;103573.75;;;5.85;88.72
72061;BME280;59925;52.136;5.420;2023-02-11T00:32:11;103576.59;;;5.83;88.77
72061;BME280;59925;52.136;5.420;2023-02-11T00:34:38;103564.28;;;5.82;88.54
72061;BME280;59925;52.136;5.420;2023-02-11T00:37:04;103572.09;;;5.83;88.78
72061;BME280;59925;52.136;5.420;2023-02-11T00:39:31;103563.63;;;5.80;89.09
72061;BME280;59925;52.136;5.420;2023-02-11T00:41:57;103571.44;;;5.81;88.84
72061;BME280;59925;52.136;5.420;2023-02-11T00:44:24;103574.94;;;5.82;89.01
72061;BME280;59925;52.136;5.420;2023-02-11T00:46:50;103574.09;;;5.81;88.97
72061;BME280;59925;52.136;5.420;2023-02-11T00:49:17;103577.59;;;5.82;88.72
72061;BME280;59925;52.136;5.420;2023-02-11T00:51:43;103570.63;;;5.81;89.07
72061;BME280;59925;52.136;5.420;2023-02-11T00:54:10;103576.94;;;5.80;89.10
72061;BME280;59925;52.136;5.420;2023-02-11T00:56:36;103573.44;;;5.79;89.15
72061;BME280;59925;52.136;5.420;2023-02-11T00:59:03;103560.13;;;5.79;89.23
72061;BME280;59925;52.136;5.420;2023-02-11T01:01:29;103562.97;;;5.78;89.24
72061;BME280;59925;52.136;5.420;2023-02-11T01:03:56;103563.13;;;5.76;89.25
72061;BME280;59925;52.136;5.420;2023-02-11T01:06:22;103553.66;;;5.74;88.93
72061;BME280;59925;52.136;5.420;2023-02-11T01:08:48;103548.31;;;5.74;89.38
72061;BME280;59925;52.136;5.420;2023-02-11T01:11:19;103533.88;;;5.68;89.51
72061;BME280;59925;52.136;5.420;2023-02-11T01:13:46;103543.03;;;5.65;89.32
72061;BME280;59925;52.136;5.420;2023-02-11T01:16:13;103544.19;;;5.63;89.38
72061;BME280;59925;52.136;5.420;2023-02-11T01:18:40;103549.69;;;5.61;89.38
72061;BME280;59925;52.136;5.420;2023-02-11T01:21:07;103539.38;;;5.58;89.74
72061;BME280;59925;52.136;5.420;2023-02-11T01:23:34;103518.25;;;5.57;89.90
72061;BME280;59925;52.136;5.420;2023-02-11T01:26:00;103520.44;;;5.53;89.66
72061;BME280;59925;52.136;5.420;2023-02-11T01:28:28;103510.94;;;5.50;89.61
72061;BME280;59925;52.136;5.420;2023-02-11T01:30:55;103527.09;;;5.49;89.95
72061;BME280;59925;52.136;5.420;2023-02-11T01:33:22;103526.75;;;5.44;90.24
72061;BME280;59925;52.136;5.420;2023-02-11T01:35:49;103545.38;;;5.44;89.84
72061;BME280;59925;52.136;5.420;2023-02-11T01:38:22;103551.69;;;5.43;89.99
72061;BME280;59925;52.136;5.420;2023-02-11T01:40:51;103558.84;;;5.42;90.00
72061;BME280;59925;52.136;5.420;2023-02-11T01:43:19;103566.84;;;5.42;90.58
72061;BME280;59925;52.136;5.420;2023-02-11T01:48:23;103558.53;;;5.45;90.33
72061;BME280;59925;52.136;5.420;2023-02-11T01:50:54;103551.34;;;5.46;90.35
72061;BME280;59925;52.136;5.420;2023-02-11T01:53:22;103544.38;;;5.45;90.53
72061;BME280;59925;52.136;5.420;2023-02-11T01:56:09;103555.00;;;5.45;90.50
72061;BME280;59925;52.136;5.420;2023-02-11T01:59:02;103556.00;;;5.44;90.64
72061;BME280;59925;52.136;5.420;2023-02-11T02:01:33;103569.50;;;5.42;90.35
72061;BME280;59925;52.136;5.420;2023-02-11T02:04:00;103568.34;;;5.36;90.43
72061;BME280;59925;52.136;5.420;2023-02-11T02:06:33;103573.84;;;5.35;90.21
72061;BME280;59925;52.136;5.420;2023-02-11T02:09:07;103564.00;;;5.35;90.57
72061;BME280;59925;52.136;5.420;2023-02-11T02:11:35;103565.69;;;5.36;90.45
72061;BME280;59925;52.136;5.420;2023-02-11T02:14:01;103560.53;;;5.35;90.64
72061;BME280;59925;52.136;5.420;2023-02-11T02:16:34;103556.03;;;5.35;90.36
72061;BME280;59925;52.136;5.420;2023-02-11T02:19:30;103554.53;;;5.33;90.45
72061;BME280;59925;52.136;5.420;2023-02-11T02:22:23;103552.69;;;5.33;90.51
72061;BME280;59925;52.136;5.420;2023-02-11T02:31:35;103552.22;;;5.21;90.79
72061;BME280;59925;52.136;5.420;2023-02-11T02:33:52;103544.06;;;5.15;90.98
72061;BME280;59925;52.136;5.420;2023-02-11T02:36:41;103550.53;;;5.12;91.25
72061;BME280;59925;52.136;5.420;2023-02-11T02:39:18;103535.44;;;5.13;91.28
72061;BME280;59925;52.136;5.420;2023-02-11T02:41:47;103529.63;;;5.09;91.39
72061;BME280;59925;52.136;5.420;2023-02-11T02:44:17;103521.63;;;5.09;91.10
72061;BME280;59925;52.136;5.420;2023-02-11T02:46:43;103529.75;;;5.07;90.95
72061;BME280;59925;52.136;5.420;2023-02-11T02:49:15;103523.78;;;5.05;91.65
72061;BME280;59925;52.136;5.420;2023-02-11T02:57:31;103537.75;;;5.07;91.37
72061;BME280;59925;52.136;5.420;2023-02-11T03:02:51;103539.09;;;5.12;91.52
72061;BME280;59925;52.136;5.420;2023-02-11T03:06:00;103529.25;;;5.12;91.86
72061;BME280;59925;52.136;5.420;2023-02-11T03:08:45;103522.28;;;5.11;91.75
72061;BME280;59925;52.136;5.420;2023-02-11T03:11:16;103525.94;;;5.10;91.66
72061;BME280;59925;52.136;5.420;2023-02-11T03:13:45;103525.78;;;5.12;92.17
72061;BME280;59925;52.136;5.420;2023-02-11T03:16:16;103525.13;;;5.10;91.90
72061;BME280;59925;52.136;5.420;2023-02-11T03:18:49;103510.34;;;5.07;92.10
72061;BME280;59925;52.136;5.420;2023-02-11T03:21:18;103502.50;;;5.05;92.03
72061;BME280;59925;52.136;5.420;2023-02-11T03:23:48;103503.69;;;5.03;91.99
72061;BME280;59925;52.136;5.420;2023-02-11T03:26:35;103502.00;;;5.02;92.43
72061;BME280;59925;52.136;5.420;2023-02-11T03:29:09;103497.69;;;5.01;92.49
72061;BME280;59925;52.136;5.420;2023-02-11T03:31:46;103495.22;;;4.99;92.92
72061;BME280;59925;52.136;5.420;2023-02-11T03:34:43;103500.53;;;4.99;92.66
72061;BME280;59925;52.136;5.420;2023-02-11T03:40:02;103502.34;;;4.99;92.93
72061;BME280;59925;52.136;5.420;2023-02-11T03:42:57;103499.69;;;4.99;92.94
72061;BME280;59925;52.136;5.420;2023-02-11T03:45:23;103489.41;;;4.96;93.25
72061;BME280;59925;52.136;5.420;2023-02-11T03:47:55;103485.06;;;4.95;93.17
72061;BME280;59925;52.136;5.420;2023-02-11T03:50:24;103475.59;;;4.92;93.21
72061;BME280;59925;52.136;5.420;2023-02-11T03:52:52;103481.25;;;4.89;92.95
72061;BME280;59925;52.136;5.420;2023-02-11T03:55:22;103482.72;;;4.83;93.08
72061;BME280;59925;52.136;5.420;2023-02-11T03:57:51;103489.06;;;4.82;93.42
72061;BME280;59925;52.136;5.420;2023-02-11T04:00:17;103485.56;;;4.82;93.69
72061;BME280;59925;52.136;5.420;2023-02-11T04:02:44;103494.53;;;4.81;93.48
72061;BME280;59925;52.136;5.420;2023-02-11T04:05:13;103507.13;;;4.79;93.68
72061;BME280;59925;52.136;5.420;2023-02-11T04:07:40;103499.03;;;4.80;94.15
72061;BME280;59925;52.136;5.420;2023-02-11T04:10:07;103513.13;;;4.81;93.75
72061;BME280;59925;52.136;5.420;2023-02-11T04:12:34;103508.66;;;4.81;94.01
72061;BME280;59925;52.136;5.420;2023-02-11T04:15:00;103506.31;;;4.86;94.39
72061;BME280;59925;52.136;5.420;2023-02-11T04:17:26;103502.53;;;4.89;94.06
72061;BME280;59925;52.136;5.420;2023-02-11T04:19:53;103499.69;;;4.90;94.57
72061;BME280;59925;52.136;5.420;2023-02-11T04:22:19;103508.34;;;4.93;94.12
72061;BME280;59925;52.136;5.420;2023-02-11T04:24:46;103507.16;;;4.95;94.24
72061;BME280;59925;52.136;5.420;2023-02-11T04:27:12;103513.16;;;4.97;94.19
72061;BME280;59925;52.136;5.420;2023-02-11T04:29:39;103511.16;;;4.99;94.25
72061;BME280;59925;52.136;5.420;2023-02-11T04:32:05;103513.81;;;4.99;94.46
72061;BME280;59925;52.136;5.420;2023-02-11T04:34:32;103522.28;;;5.03;94.31
72061;BME280;59925;52.136;5.420;2023-02-11T04:36:58;103521.97;;;5.06;94.24
72061;BME280;59925;52.136;5.420;2023-02-11T04:39:25;103517.47;;;5.06;94.30
72061;BME280;59925;52.136;5.420;2023-02-11T04:41:51;103524.28;;;5.09;94.64
72061;BME280;59925;52.136;5.420;2023-02-11T04:44:18;103518.81;;;5.11;94.35
72061;BME280;59925;52.136;5.420;2023-02-11T04:46:44;103525.78;;;5.12;94.71
72061;BME280;59925;52.136;5.420;2023-02-11T04:49:15;103525.47;;;5.15;94.68
72061;BME280;59925;52.136;5.420;2023-02-11T04:51:42;103520.78;;;5.17;94.86
72061;BME280;59925;52.136;5.420;2023-02-11T04:54:13;103523.28;;;5.18;94.70
72061;BME280;59925;52.136;5.420;2023-02-11T04:56:39;103515.13;;;5.20;94.78
72061;BME280;59925;52.136;5.420;2023-02-11T04:59:06;103517.78;;;5.20;94.71
72061;BME280;59925;52.136;5.420;2023-02-11T05:01:33;103516.81;;;5.21;94.35
72061;BME280;59925;52.136;5.420;2023-02-11T05:03:59;103517.66;;;5.21;94.71
72061;BME280;59925;52.136;5.420;2023-02-11T05:06:25;103514.81;;;5.23;94.67
72061;BME280;59925;52.136;5.420;2023-02-11T05:08:52;103519.94;;;5.25;94.32
72061;BME280;59925;52.136;5.420;2023-02-11T05:11:21;103508.31;;;5.26;94.79
72061;BME280;59925;52.136;5.420;2023-02-11T05:13:48;103516.47;;;5.24;94.42
72061;BME280;59925;52.136;5.420;2023-02-11T05:16:15;103519.63;;;5.28;94.47
72061;BME280;59925;52.136;5.420;2023-02-11T05:18:43;103519.63;;;5.28;94.45
72061;BME280;59925;52.136;5.420;2023-02-11T05:21:15;103524.78;;;5.29;94.56
72061;BME280;59925;52.136;5.420;2023-02-11T05:23:43;103515.78;;;5.30;94.13
72061;BME280;59925;52.136;5.420;2023-02-11T05:26:10;103514.97;;;5.30;94.34
72061;BME280;59925;52.136;5.420;2023-02-11T05:28:37;103520.78;;;5.33;94.47
72061;BME280;59925;52.136;5.420;2023-02-11T05:31:04;103527.75;;;5.34;94.71
72061;BME280;59925;52.136;5.420;2023-02-11T05:33:31;103523.09;;;5.36;94.32
72061;BME280;59925;52.136;5.420;2023-02-11T05:35:59;103520.28;;;5.38;94.45
72061;BME280;59925;52.136;5.420;2023-02-11T05:38:26;103510.47;;;5.39;94.72
72061;BME280;59925;52.136;5.420;2023-02-11T05:40:53;103512.97;;;5.40;94.93
72061;BME280;59925;52.136;5.420;2023-02-11T05:43:20;103510.16;;;5.42;94.96
72061;BME280;59925;52.136;5.420;2023-02-11T05:45:46;103504.66;;;5.43;94.73
72061;BME280;59925;52.136;5.420;2023-02-11T05:48:13;103509.13;;;5.43;94.95
72061;BME280;59925;52.136;5.420;2023-02-11T05:50:40;103509.13;;;5.43;95.05
72061;BME280;59925;52.136;5.420;2023-02-11T05:53:06;103504.47;;;5.45;94.72
72061;BME280;59925;52.136;5.420;2023-02-11T05:55:33;103514.09;;;5.46;94.68
72061;BME280;59925;52.136;5.420;2023-02-11T05:58:00;103521.09;;;5.47;94.71
72061;BME280;59925;52.136;5.420;2023-02-11T06:00:26;103520.09;;;5.48;94.89
72061;BME280;59925;52.136;5.420;2023-02-11T06:02:53;103514.59;;;5.49;94.60
72061;BME280;59925;52.136;5.420;2023-02-11T06:05:19;103510.13;;;5.50;94.60
72061;BME280;59925;52.136;5.420;2023-02-11T06:07:46;103517.91;;;5.51;94.91
72061;BME280;59925;52.136;5.420;2023-02-11T06:10:12;103523.09;;;5.53;94.73
72061;BME280;59925;52.136;5.420;2023-02-11T06:12:39;103525.75;;;5.53;94.85
72061;BME280;59925;52.136;5.420;2023-02-11T06:15:05;103530.06;;;5.54;94.48
72061;BME280;59925;52.136;5.420;2023-02-11T06:17:32;103532.75;;;5.54;94.64
72061;BME280;59925;52.136;5.420;2023-02-11T06:19:59;103533.38;;;5.56;94.37
72061;BME280;59925;52.136;5.420;2023-02-11T06:22:28;103527.91;;;5.58;94.44
72061;BME280;59925;52.136;5.420;2023-02-11T06:24:54;103528.72;;;5.58;94.53
72061;BME280;59925;52.136;5.420;2023-02-11T06:27:27;103529.72;;;5.57;94.24
72061;BME280;59925;52.136;5.420;2023-02-11T06:29:54;103526.25;;;5.57;94.73
72061;BME280;59925;52.136;5.420;2023-02-11T06:32:21;103520.75;;;5.58;94.32
72061;BME280;59925;52.136;5.420;2023-02-11T06:35:08;103527.72;;;5.59;94.37
72061;BME280;59925;52.136;5.420;2023-02-11T06:37:37;103527.72;;;5.59;94.49
72061;BME280;59925;52.136;5.420;2023-02-11T06:40:04;103522.88;;;5.63;94.60
72061;BME280;59925;52.136;5.420;2023-02-11T06:42:30;103518.41;;;5.63;94.36
72061;BME280;59925;52.136;5.420;2023-02-11T06:44:57;103522.72;;;5.64;94.63
72061;BME280;59925;52.136;5.420;2023-02-11T06:47:23;103519.88;;;5.66;94.75
72061;BME280;59925;52.136;5.420;2023-02-11T06:49:50;103519.75;;;5.67;94.47
72061;BME280;59925;52.136;5.420;2023-02-11T06:52:16;103506.44;;;5.67;94.49
72061;BME280;59925;52.136;5.420;2023-02-11T06:54:42;103519.22;;;5.72;94.47
72061;BME280;59925;52.136;5.420;2023-02-11T06:57:09;103522.56;;;5.74;94.67
72061;BME280;59925;52.136;5.420;2023-02-11T06:59:35;103526.88;;;5.75;94.92
72061;BME280;59925;52.136;5.420;2023-02-11T07:02:02;103525.03;;;5.76;94.82
72061;BME280;59925;52.136;5.420;2023-02-11T07:04:28;103535.69;;;5.76;94.68
72061;BME280;59925;52.136;5.420;2023-02-11T07:06:54;103536.50;;;5.76;94.58
72061;BME280;59925;52.136;5.420;2023-02-11T07:09:21;103539.00;;;5.78;94.76
72061;BME280;59925;52.136;5.420;2023-02-11T07:11:47;103538.00;;;5.79;94.87
72061;BME280;59925;52.136;5.420;2023-02-11T07:14:14;103546.00;;;5.79;94.50
72061;BME280;59925;52.136;5.420;2023-02-11T07:16:40;103544.00;;;5.81;94.66
72061;BME280;59925;52.136;5.420;2023-02-11T07:19:06;103539.31;;;5.83;94.91
72061;BME280;59925;52.136;5.420;2023-02-11T07:21:33;103538.16;;;5.86;94.96
72061;BME280;59925;52.136;5.420;2023-02-11T07:24:00;103544.78;;;5.90;94.84
72061;BME280;59925;52.136;5.420;2023-02-11T07:26:27;103555.09;;;5.93;95.04
72061;BME280;59925;52.136;5.420;2023-02-11T07:28:54;103552.44;;;5.93;95.25
72061;BME280;59925;52.136;5.420;2023-02-11T07:31:23;103561.75;;;5.97;95.28
72061;BME280;59925;52.136;5.420;2023-02-11T07:33:52;103560.25;;;6.03;95.00
72061;BME280;59925;52.136;5.420;2023-02-11T07:36:20;103559.25;;;6.04;95.21
72061;BME280;59925;52.136;5.420;2023-02-11T07:38:47;103572.06;;;6.08;95.28
72061;BME280;59925;52.136;5.420;2023-02-11T07:41:17;103563.88;;;6.10;95.44
72061;BME280;59925;52.136;5.420;2023-02-11T07:43:44;103566.22;;;6.13;95.11
72061;BME280;59925;52.136;5.420;2023-02-11T07:48:42;103573.03;;;6.16;95.29
72061;BME280;59925;52.136;5.420;2023-02-11T07:53:36;103568.88;;;6.21;95.26
72061;BME280;59925;52.136;5.420;2023-02-11T07:56:04;103566.84;;;6.23;94.98
72061;BME280;59925;52.136;5.420;2023-02-11T07:58:31;103570.00;;;6.27;95.05
72061;BME280;59925;52.136;5.420;2023-02-11T08:01:03;103572.50;;;6.28;95.25
72061;BME280;59925;52.136;5.420;2023-02-11T08:03:30;103570.47;;;6.31;95.17
72061;BME280;59925;52.136;5.420;2023-02-11T08:05:57;103573.81;;;6.33;95.13
72061;BME280;59925;52.136;5.420;2023-02-11T08:08:26;103563.44;;;6.38;95.03
72061;BME280;59925;52.136;5.420;2023-02-11T08:10:53;103568.44;;;6.41;94.70
72061;BME280;59925;52.136;5.420;2023-02-11T08:13:19;103569.09;;;6.43;95.03
72061;BME280;59925;52.136;5.420;2023-02-11T08:15:46;103568.75;;;6.46;94.76
72061;BME280;59925;52.136;5.420;2023-02-11T08:18:12;103574.75;;;6.48;94.78
72061;BME280;59925;52.136;5.420;2023-02-11T08:20:39;103580.72;;;6.50;94.92
72061;BME280;59925;52.136;5.420;2023-02-11T08:23:06;103577.03;;;6.51;94.83
72061;BME280;59925;52.136;5.420;2023-02-11T08:25:33;103576.22;;;6.51;94.70
72061;BME280;59925;52.136;5.420;2023-02-11T08:27:59;103577.03;;;6.51;94.79
72061;BME280;59925;52.136;5.420;2023-02-11T08:30:26;103580.72;;;6.50;94.46
72061;BME280;59925;52.136;5.420;2023-02-11T08:32:52;103583.03;;;6.53;94.46
72061;BME280;59925;52.136;5.420;2023-02-11T08:35:19;103579.53;;;6.53;94.54
72061;BME280;59925;52.136;5.420;2023-02-11T08:37:45;103588.22;;;6.55;94.73
72061;BME280;59925;52.136;5.420;2023-02-11T08:40:12;103589.03;;;6.55;94.55
72061;BME280;59925;52.136;5.420;2023-02-11T08:42:38;103588.03;;;6.56;94.47
72061;BME280;59925;52.136;5.420;2023-02-11T08:45:05;103592.00;;;6.61;94.47
72061;BME280;59925;52.136;5.420;2023-02-11T08:47:32;103595.16;;;6.64;94.43
72061;BME280;59925;52.136;5.420;2023-02-11T08:49:58;103589.09;;;6.70;94.38
72061;BME280;59925;52.136;5.420;2023-02-11T08:52:24;103596.94;;;6.72;94.32
72061;BME280;59925;52.136;5.420;2023-02-11T08:54:51;103598.22;;;6.76;94.27
72061;BME280;59925;52.136;5.420;2023-02-11T08:57:17;103595.22;;;6.79;94.26
72061;BME280;59925;52.136;5.420;2023-02-11T08:59:44;103607.19;;;6.83;93.88
72061;BME280;59925;52.136;5.420;2023-02-11T09:02:12;103604.81;;;6.88;94.07
72061;BME280;59925;52.136;5.420;2023-02-11T09:04:39;103605.13;;;6.94;94.04
72061;BME280;59925;52.136;5.420;2023-02-11T09:07:06;103604.44;;;7.00;93.87
72061;BME280;59925;52.136;5.420;2023-02-11T09:09:32;103610.59;;;7.00;93.69
72061;BME280;59925;52.136;5.420;2023-02-11T09:11:59;103612.56;;;7.07;93.87
72061;BME280;59925;52.136;5.420;2023-02-11T09:14:27;103620.69;;;7.13;93.66
72061;BME280;59925;52.136;5.420;2023-02-11T09:16:53;103617.28;;;7.19;93.63
72061;BME280;59925;52.136;5.420;2023-02-11T09:19:20;103617.59;;;7.25;93.45
72061;BME280;59925;52.136;5.420;2023-02-11T09:21:46;103624.41;;;7.27;93.01
72061;BME280;59925;52.136;5.420;2023-02-11T09:24:13;103617.34;;;7.34;93.05
72061;BME280;59925;52.136;5.420;2023-02-11T09:26:41;103626.50;;;7.40;93.04
72061;BME280;59925;52.136;5.420;2023-02-11T09:29:08;103623.09;;;7.46;92.91
72061;BME280;59925;52.136;5.420;2023-02-11T09:31:34;103625.22;;;7.51;92.97
72061;BME280;59925;52.136;5.420;2023-02-11T09:34:03;103627.72;;;7.53;92.45
72061;BME280;59925;52.136;5.420;2023-02-11T09:36:36;103631.03;;;7.55;92.19
72061;BME280;59925;52.136;5.420;2023-02-11T09:39:06;103630.31;;;7.61;92.47
72061;BME280;59925;52.136;5.420;2023-02-11T09:44:43;103640.75;;;7.71;91.87
72061;BME280;59925;52.136;5.420;2023-02-11T09:47:24;103638.19;;;7.77;91.47
72061;BME280;59925;52.136;5.420;2023-02-11T09:49:59;103634.78;;;7.83;91.69
72061;BME280;59925;52.136;5.420;2023-02-11T09:52:35;103636.53;;;7.91;91.48
72061;BME280;59925;52.136;5.420;2023-02-11T09:55:16;103640.31;;;7.97;91.34
72061;BME280;59925;52.136;5.420;2023-02-11T09:57:44;103647.97;;;8.00;90.71
72061;BME280;59925;52.136;5.420;2023-02-11T10:00:20;103650.28;;;8.03;90.61
72061;BME280;59925;52.136;5.420;2023-02-11T10:10:46;103670.09;;;8.24;89.66
72061;BME280;59925;52.136;5.420;2023-02-11T10:18:37;103674.66;;;8.53;89.40
72061;BME280;59925;52.136;5.420;2023-02-11T10:23:45;103682.53;;;8.77;88.42
72061;BME280;59925;52.136;5.420;2023-02-11T10:26:16;103679.09;;;8.98;88.07
72061;BME280;59925;52.136;5.420;2023-02-11T10:28:45;103678.03;;;9.14;87.31
72061;BME280;59925;52.136;5.420;2023-02-11T10:33:59;103688.56;;;9.37;86.37
72061;BME280;59925;52.136;5.420;2023-02-11T10:36:29;103689.72;;;9.28;86.08
72061;BME280;59925;52.136;5.420;2023-02-11T10:41:44;103700.56;;;9.41;85.60
72061;BME280;59925;52.136;5.420;2023-02-11T10:44:30;103703.41;;;9.40;85.26
72061;BME280;59925;52.136;5.420;2023-02-11T10:47:01;103700.50;;;9.34;85.30
72061;BME280;59925;52.136;5.420;2023-02-11T10:49:43;103702.66;;;9.24;84.77
72061;BME280;59925;52.136;5.420;2023-02-11T10:55:09;103700.47;;;9.13;84.93
72061;BME280;59925;52.136;5.420;2023-02-11T10:58:00;103692.69;;;9.18;84.79
72061;BME280;59925;52.136;5.420;2023-02-11T11:00:40;103698.03;;;9.18;84.80
72061;BME280;59925;52.136;5.420;2023-02-11T11:03:22;103699.34;;;9.22;84.78
72061;BME280;59925;52.136;5.420;2023-02-11T11:05:55;103698.84;;;9.33;84.81
72061;BME280;59925;52.136;5.420;2023-02-11T11:08:56;103702.34;;;9.56;84.56
72061;BME280;59925;52.136;5.420;2023-02-11T11:11:24;103710.00;;;9.59;83.85
72061;BME280;59925;52.136;5.420;2023-02-11T11:18:49;103712.28;;;9.84;82.26
72061;BME280;59925;52.136;5.420;2023-02-11T11:21:34;103713.34;;;9.89;82.16
72061;BME280;59925;52.136;5.420;2023-02-11T11:24:02;103723.59;;;10.07;82.27
72061;BME280;59925;52.136;5.420;2023-02-11T11:26:39;103726.66;;;10.04;81.52
72061;BME280;59925;52.136;5.420;2023-02-11T11:29:12;103733.41;;;10.00;81.26
72061;BME280;59925;52.136;5.420;2023-02-11T11:31:57;103730.50;;;9.95;81.27
72061;BME280;59925;52.136;5.420;2023-02-11T11:34:30;103730.78;;;10.07;81.21
72061;BME280;59925;52.136;5.420;2023-02-11T11:36:58;103739.34;;;10.17;80.81
72061;BME280;59925;52.136;5.420;2023-02-11T11:41:56;103744.81;;;10.66;79.70
72061;BME280;59925;52.136;5.420;2023-02-11T11:49:35;103731.69;;;10.42;80.21
72061;BME280;59925;52.136;5.420;2023-02-11T11:54:48;103718.56;;;10.33;79.52
72061;BME280;59925;52.136;5.420;2023-02-11T11:57:21;103720.16;;;10.20;79.38
72061;BME280;59925;52.136;5.420;2023-02-11T11:59:50;103720.31;;;10.12;79.58
72061;BME280;59925;52.136;5.420;2023-02-11T12:11:26;103709.03;;;10.23;79.95
72061;BME280;59925;52.136;5.420;2023-02-11T12:14:15;103696.28;;;10.25;79.83
72061;BME280;59925;52.136;5.420;2023-02-11T12:19:52;103700.22;;;10.30;79.47
72061;BME280;59925;52.136;5.420;2023-02-11T12:31:01;103701.50;;;10.69;77.81
72061;BME280;59925;52.136;5.420;2023-02-11T12:39:49;103701.91;;;11.68;75.96
72061;BME280;59925;52.136;5.420;2023-02-11T12:42:33;103700.88;;;11.69;73.70
72061;BME280;59925;52.136;5.420;2023-02-11T12:45:35;103698.59;;;11.93;73.91
72061;BME280;59925;52.136;5.420;2023-02-11T12:50:52;103705.44;;;11.95;73.62
72061;BME280;59925;52.136;5.420;2023-02-11T12:56:21;103706.47;;;11.88;71.78
72061;BME280;59925;52.136;5.420;2023-02-11T12:58:51;103697.38;;;12.02;71.97
72061;BME280;59925;52.136;5.420;2023-02-11T13:01:31;103692.41;;;11.86;71.86
72061;BME280;59925;52.136;5.420;2023-02-11T13:04:16;103700.25;;;11.94;72.38
72061;BME280;59925;52.136;5.420;2023-02-11T13:06:49;103696.13;;;11.91;71.96
72061;BME280;59925;52.136;5.420;2023-02-11T13:09:27;103695.09;;;11.86;71.87
72061;BME280;59925;52.136;5.420;2023-02-11T13:11:59;103691.56;;;12.19;72.00
72061;BME280;59925;52.136;5.420;2023-02-11T13:14:51;103702.72;;;12.29;71.23
72061;BME280;59925;52.136;5.420;2023-02-11T13:17:29;103704.16;;;12.32;71.86
72061;BME280;59925;52.136;5.420;2023-02-11T13:20:13;103700.84;;;12.36;72.00
72061;BME280;59925;52.136;5.420;2023-02-11T13:22:49;103697.94;;;12.31;71.56
72061;BME280;59925;52.136;5.420;2023-02-11T13:25:35;103696.09;;;12.32;71.53
72061;BME280;59925;52.136;5.420;2023-02-11T13:31:01;103692.59;;;12.04;71.09
72061;BME280;59925;52.136;5.420;2023-02-11T13:33:34;103691.41;;;12.00;71.56
72061;BME280;59925;52.136;5.420;2023-02-11T13:38:30;103679.59;;;11.94;71.14
72061;BME280;59925;52.136;5.420;2023-02-11T13:41:18;103684.97;;;11.81;71.25
72061;BME280;59925;52.136;5.420;2023-02-11T13:43:57;103681.88;;;11.77;71.66
72061;BME280;59925;52.136;5.420;2023-02-11T13:46:25;103684.34;;;11.65;71.73
72061;BME280;59925;52.136;5.420;2023-02-11T13:48:53;103686.00;;;11.73;71.80
72061;BME280;59925;52.136;5.420;2023-02-11T13:51:41;103687.44;;;11.69;71.75
72061;BME280;59925;52.136;5.420;2023-02-11T13:54:19;103687.25;;;11.71;72.16
72061;BME280;59925;52.136;5.420;2023-02-11T14:02:28;103685.59;;;11.56;72.05
72061;BME280;59925;52.136;5.420;2023-02-11T14:13:32;103695.66;;;11.21;72.93
72061;BME280;59925;52.136;5.420;2023-02-11T14:16:16;103697.72;;;11.18;73.01
72061;BME280;59925;52.136;5.420;2023-02-11T14:19:00;103696.91;;;11.11;72.94
72061;BME280;59925;52.136;5.420;2023-02-11T14:26:48;103697.91;;;11.10;73.35
72061;BME280;59925;52.136;5.420;2023-02-11T14:35:21;103704.09;;;11.04;73.40
72061;BME280;59925;52.136;5.420;2023-02-11T14:40:37;103702.66;;;11.08;73.63
72061;BME280;59925;52.136;5.420;2023-02-11T14:43:15;103701.44;;;11.17;73.86
72061;BME280;59925;52.136;5.420;2023-02-11T14:45:44;103706.19;;;11.22;73.75
72061;BME280;59925;52.136;5.420;2023-02-11T14:48:16;103707.47;;;11.33;73.95
72061;BME280;59925;52.136;5.420;2023-02-11T14:50:57;103707.44;;;11.26;73.52
72061;BME280;59925;52.136;5.420;2023-02-11T14:53:27;103710.34;;;11.31;73.87
72061;BME280;59925;52.136;5.420;2023-02-11T14:55:55;103707.25;;;11.28;73.83
72061;BME280;59925;52.136;5.420;2023-02-11T14:58:30;103705.41;;;11.28;73.44
72061;BME280;59925;52.136;5.420;2023-02-11T15:01:05;103711.13;;;11.12;73.45
72061;BME280;59925;52.136;5.420;2023-02-11T15:03:48;103709.47;;;11.11;73.84
72061;BME280;59925;52.136;5.420;2023-02-11T15:08:44;103714.44;;;11.07;74.32
72061;BME280;59925;52.136;5.420;2023-02-11T15:11:14;103710.50;;;11.10;74.16
72061;BME280;59925;52.136;5.420;2023-02-11T15:13:42;103717.13;;;11.07;73.99
72061;BME280;59925;52.136;5.420;2023-02-11T15:16:15;103714.63;;;11.06;73.98
72061;BME280;59925;52.136;5.420;2023-02-11T15:18:49;103721.22;;;11.03;73.73
72061;BME280;59925;52.136;5.420;2023-02-11T15:21:22;103721.19;;;10.96;74.34
72061;BME280;59925;52.136;5.420;2023-02-11T15:23:58;103723.84;;;10.89;74.30
72061;BME280;59925;52.136;5.420;2023-02-11T15:26:26;103731.47;;;10.79;74.53
72061;BME280;59925;52.136;5.420;2023-02-11T15:28:53;103726.88;;;10.73;74.42
72061;BME280;59925;52.136;5.420;2023-02-11T15:31:23;103724.81;;;10.75;74.82